createdAt,value
2022-11-05T00:01:44.691Z,10.38
2022-11-05T00:04:31.178Z,10.38
2022-11-05T00:07:30.310Z,10.36
2022-11-05T00:10:03.739Z,10.34
2022-11-05T00:12:48.651Z,10.31
2022-11-05T00:15:35.542Z,10.29
2022-11-05T00:18:05.342Z,10.30
2022-11-05T00:20:33.339Z,10.28
2022-11-05T00:23:19.540Z,10.31
2022-11-05T00:25:55.859Z,10.31
2022-11-05T00:28:24.150Z,10.34
2022-11-05T00:30:52.447Z,10.36
2022-11-05T00:33:22.221Z,10.38
2022-11-05T00:35:50.157Z,10.44
2022-11-05T00:38:18.101Z,10.45
2022-11-05T00:40:46.511Z,10.48
2022-11-05T00:43:31.710Z,10.46
2022-11-05T00:45:59.774Z,10.54
2022-11-05T00:48:46.942Z,10.56
2022-11-05T00:51:14.851Z,10.57
2022-11-05T00:53:42.848Z,10.63
2022-11-05T00:56:11.035Z,10.70
2022-11-05T00:58:39.232Z,10.77
2022-11-05T01:01:07.383Z,10.73
2022-11-05T01:03:39.630Z,10.66
2022-11-05T01:06:10.267Z,10.73
2022-11-05T01:08:38.634Z,10.76
2022-11-05T01:11:11.656Z,10.70
2022-11-05T01:13:41.308Z,10.66
2022-11-05T01:16:12.015Z,10.67
2022-11-05T01:18:41.231Z,10.61
2022-11-05T01:21:13.759Z,10.58
2022-11-05T01:23:41.772Z,10.54
2022-11-05T01:26:09.811Z,10.52
2022-11-05T01:28:37.953Z,10.49
2022-11-05T01:31:05.942Z,10.47
2022-11-05T01:33:33.858Z,10.41
2022-11-05T01:36:03.130Z,10.38
2022-11-05T01:38:30.987Z,10.39
2022-11-05T01:40:58.853Z,10.36
2022-11-05T01:43:26.988Z,10.33
2022-11-05T01:45:59.352Z,10.28
2022-11-05T01:48:33.278Z,10.27
2022-11-05T01:51:05.483Z,10.23
2022-11-05T01:53:38.190Z,10.19
2022-11-05T01:56:09.594Z,10.19
2022-11-05T01:58:43.040Z,10.15
2022-11-05T02:01:10.995Z,10.15
2022-11-05T02:03:39.273Z,10.11
2022-11-05T02:06:10.069Z,10.11
2022-11-05T02:08:55.244Z,10.09
2022-11-05T02:11:23.333Z,10.06
2022-11-05T02:13:52.003Z,10.05
2022-11-05T02:16:32.603Z,10.05
2022-11-05T02:19:10.845Z,10.01
2022-11-05T02:22:17.342Z,9.94
2022-11-05T02:25:05.667Z,9.92
2022-11-05T02:27:56.151Z,9.93
2022-11-05T02:30:39.547Z,9.89
2022-11-05T02:33:36.842Z,9.89
2022-11-05T02:36:32.614Z,9.84
2022-11-05T02:39:14.034Z,9.86
2022-11-05T02:41:50.265Z,9.79
2022-11-05T02:44:28.989Z,9.82
2022-11-05T02:47:07.007Z,9.87
2022-11-05T02:49:47.871Z,9.85
2022-11-05T02:52:22.281Z,9.86
2022-11-05T02:54:59.081Z,9.89
2022-11-05T02:57:30.712Z,9.86
2022-11-05T03:00:02.893Z,9.86
2022-11-05T03:02:33.113Z,9.81
2022-11-05T03:05:02.227Z,9.79
2022-11-05T03:07:39.299Z,9.77
2022-11-05T03:10:20.061Z,9.74
2022-11-05T03:13:01.698Z,9.80
2022-11-05T03:15:47.325Z,9.67
2022-11-05T03:18:22.067Z,9.61
2022-11-05T03:20:55.253Z,9.61
2022-11-05T03:23:28.944Z,9.62
2022-11-05T03:26:03.118Z,9.56
2022-11-05T03:28:36.570Z,9.53
2022-11-05T03:31:06.848Z,9.53
2022-11-05T03:33:40.182Z,9.53
2022-11-05T03:36:16.175Z,9.51
2022-11-05T03:38:48.088Z,9.48
2022-11-05T03:41:17.289Z,9.46
2022-11-05T03:43:49.455Z,9.42
2022-11-05T03:46:21.508Z,9.39
2022-11-05T03:48:55.463Z,9.38
2022-11-05T03:51:30.653Z,9.39
2022-11-05T03:54:02.251Z,9.41
2022-11-05T03:56:34.246Z,9.38
2022-11-05T03:59:04.025Z,9.37
2022-11-05T04:01:32.820Z,9.39
2022-11-05T04:04:02.221Z,9.36
2022-11-05T04:06:47.756Z,9.30
2022-11-05T04:09:32.891Z,9.25
2022-11-05T04:12:18.545Z,9.31
2022-11-05T04:14:46.481Z,9.34
2022-11-05T04:17:13.356Z,9.34
2022-11-05T04:20:01.205Z,9.35
2022-11-05T04:22:48.934Z,9.34
2022-11-05T04:25:18.630Z,9.38
2022-11-05T04:27:47.188Z,9.38
2022-11-05T04:30:18.679Z,9.36
2022-11-05T04:33:03.011Z,9.39
2022-11-05T04:35:34.284Z,9.37
2022-11-05T04:38:02.965Z,9.36
2022-11-05T04:40:31.334Z,9.29
2022-11-05T04:42:59.674Z,9.33
2022-11-05T04:45:29.659Z,9.31
2022-11-05T04:47:57.763Z,9.31
2022-11-05T04:50:25.799Z,9.32
2022-11-05T04:52:55.076Z,9.30
2022-11-05T04:55:23.322Z,9.27
2022-11-05T04:57:52.854Z,9.25
2022-11-05T05:00:22.405Z,9.28
2022-11-05T05:02:51.711Z,9.31
2022-11-05T05:05:19.798Z,9.28
2022-11-05T05:07:47.819Z,9.30
2022-11-05T05:10:17.269Z,9.23
2022-11-05T05:12:45.314Z,9.24
2022-11-05T05:15:13.434Z,9.21
2022-11-05T05:17:41.392Z,9.22
2022-11-05T05:20:27.273Z,9.25
2022-11-05T05:22:55.950Z,9.22
2022-11-05T05:25:25.480Z,9.21
2022-11-05T05:27:53.458Z,9.17
2022-11-05T05:30:21.380Z,9.20
2022-11-05T05:32:49.264Z,9.18
2022-11-05T05:35:17.675Z,9.23
2022-11-05T05:37:45.650Z,9.23
2022-11-05T05:40:13.543Z,9.20
2022-11-05T05:42:43.587Z,9.21
2022-11-05T05:45:12.745Z,9.20
2022-11-05T05:47:40.731Z,9.19
2022-11-05T05:50:09.111Z,9.14
2022-11-05T05:52:37.318Z,9.15
2022-11-05T05:55:05.626Z,9.16
2022-11-05T05:57:33.516Z,9.15
2022-11-05T06:00:02.858Z,9.17
2022-11-05T06:02:31.688Z,9.15
2022-11-05T06:04:59.616Z,9.19
2022-11-05T06:07:28.492Z,9.21
2022-11-05T06:09:58.555Z,9.18
2022-11-05T06:12:26.435Z,9.19
2022-11-05T06:14:54.509Z,9.16
2022-11-05T06:17:23.811Z,9.15
2022-11-05T06:19:51.752Z,9.14
2022-11-05T06:22:19.737Z,9.10
2022-11-05T06:24:47.667Z,9.07
2022-11-05T06:27:15.553Z,9.08
2022-11-05T06:29:43.549Z,9.12
2022-11-05T06:32:11.414Z,9.12
2022-11-05T06:34:40.695Z,9.11
2022-11-05T06:37:08.675Z,9.12
2022-11-05T06:39:36.626Z,9.12
2022-11-05T06:42:17.765Z,9.16
2022-11-05T06:44:46.544Z,9.17
2022-11-05T06:47:14.459Z,9.21
2022-11-05T06:49:43.687Z,9.18
2022-11-05T06:52:11.817Z,9.16
2022-11-05T06:54:39.766Z,9.21
2022-11-05T06:57:09.720Z,9.15
2022-11-05T06:59:37.913Z,9.15
2022-11-05T07:02:06.439Z,9.13
2022-11-05T07:04:34.683Z,9.12
2022-11-05T07:07:04.242Z,9.09
2022-11-05T07:09:32.130Z,9.12
2022-11-05T07:11:59.997Z,9.13
2022-11-05T07:14:28.065Z,9.09
2022-11-05T07:16:57.514Z,9.10
2022-11-05T07:19:25.335Z,9.14
2022-11-05T07:21:53.223Z,9.16
2022-11-05T07:24:22.470Z,9.14
2022-11-05T07:26:50.282Z,9.13
2022-11-05T07:29:18.261Z,9.16
2022-11-05T07:31:47.002Z,9.23
2022-11-05T07:34:14.904Z,9.32
2022-11-05T07:36:42.970Z,9.39
2022-11-05T07:39:11.038Z,9.49
2022-11-05T07:41:40.208Z,9.49
2022-11-05T07:44:08.513Z,9.56
2022-11-05T07:46:36.353Z,9.61
2022-11-05T07:49:04.313Z,9.63
2022-11-05T07:51:32.205Z,9.71
2022-11-05T07:54:00.160Z,9.69
2022-11-05T07:56:28.070Z,9.64
2022-11-05T07:58:57.465Z,9.67
2022-11-05T08:01:25.545Z,9.71
2022-11-05T08:03:53.642Z,9.78
2022-11-05T08:06:21.844Z,9.80
2022-11-05T08:08:49.671Z,9.90
2022-11-05T08:11:18.901Z,9.95
2022-11-05T08:13:46.836Z,9.96
2022-11-05T08:16:16.592Z,10.01
2022-11-05T08:18:44.732Z,10.07
2022-11-05T08:21:12.669Z,10.10
2022-11-05T08:23:42.500Z,10.17
2022-11-05T08:26:11.654Z,10.17
2022-11-05T08:28:39.562Z,10.21
2022-11-05T08:31:07.436Z,10.24
2022-11-05T08:33:36.659Z,10.36
2022-11-05T08:36:05.380Z,10.38
2022-11-05T08:38:33.248Z,10.41
2022-11-05T08:41:01.080Z,10.43
2022-11-05T08:43:29.080Z,10.43
2022-11-05T08:45:57.104Z,10.44
2022-11-05T08:48:24.954Z,10.50
2022-11-05T08:50:54.391Z,10.59
2022-11-05T08:53:22.491Z,10.48
2022-11-05T08:55:51.542Z,10.56
2022-11-05T08:58:20.940Z,10.60
2022-11-05T09:00:50.543Z,10.61
2022-11-05T09:03:19.256Z,10.66
2022-11-05T09:05:47.869Z,10.67
2022-11-05T09:08:19.251Z,10.60
2022-11-05T09:10:49.814Z,10.63
2022-11-05T09:13:20.099Z,10.65
2022-11-05T09:15:48.664Z,10.73
2022-11-05T09:18:17.593Z,10.81
2022-11-05T09:20:45.528Z,10.93
2022-11-05T09:23:15.659Z,10.98
2022-11-05T09:25:45.895Z,10.94
2022-11-05T09:28:17.355Z,10.93
2022-11-05T09:30:47.319Z,10.89
2022-11-05T09:33:16.003Z,10.84
2022-11-05T09:35:44.323Z,10.98
2022-11-05T09:38:12.496Z,10.98
2022-11-05T09:40:48.231Z,11.12
2022-11-05T09:43:20.095Z,11.21
2022-11-05T09:45:50.871Z,11.20
2022-11-05T09:48:24.546Z,11.31
2022-11-05T09:50:54.821Z,11.28
2022-11-05T09:53:24.668Z,11.41
2022-11-05T09:55:57.498Z,11.42
2022-11-05T09:58:36.901Z,11.38
2022-11-05T10:01:07.918Z,11.49
2022-11-05T10:03:43.598Z,11.57
2022-11-05T10:06:15.586Z,11.54
2022-11-05T10:08:46.903Z,11.44
2022-11-05T10:11:19.510Z,11.39
2022-11-05T10:13:50.270Z,11.46
2022-11-05T10:16:25.479Z,11.47
2022-11-05T10:18:58.508Z,11.60
2022-11-05T10:21:51.354Z,11.63
2022-11-05T10:24:18.717Z,11.66
2022-11-05T10:26:51.652Z,11.59
2022-11-05T10:29:27.020Z,11.71
2022-11-05T10:31:57.145Z,11.75
2022-11-05T10:34:28.580Z,11.88
2022-11-05T10:36:56.592Z,12.01
2022-11-05T10:39:27.959Z,12.00
2022-11-05T10:42:23.493Z,12.07
2022-11-05T10:45:00.285Z,12.19
2022-11-05T10:47:50.187Z,12.28
2022-11-05T10:50:21.352Z,12.42
2022-11-05T10:52:59.432Z,12.57
2022-11-05T10:55:30.208Z,12.81
2022-11-05T10:58:19.430Z,12.81
2022-11-05T11:01:02.905Z,12.76
2022-11-05T11:03:46.018Z,12.73
2022-11-05T11:06:24.472Z,12.56
2022-11-05T11:08:54.352Z,12.48
2022-11-05T11:11:36.959Z,12.57
2022-11-05T11:14:19.248Z,12.65
2022-11-05T11:16:50.380Z,12.70
2022-11-05T11:19:30.537Z,12.58
2022-11-05T11:22:18.870Z,12.70
2022-11-05T11:24:49.495Z,12.67
2022-11-05T11:27:22.196Z,12.66
2022-11-05T11:29:56.816Z,12.71
2022-11-05T11:32:28.605Z,12.65
2022-11-05T11:34:58.667Z,12.64
2022-11-05T11:37:29.943Z,12.71
2022-11-05T11:40:01.919Z,12.76
2022-11-05T11:42:33.866Z,12.72
2022-11-05T11:45:07.471Z,12.81
2022-11-05T11:47:35.485Z,12.82
2022-11-05T11:50:03.589Z,12.92
2022-11-05T11:52:33.643Z,12.94
2022-11-05T11:55:23.117Z,12.83
2022-11-05T11:57:53.215Z,12.95
2022-11-05T12:00:26.946Z,13.01
2022-11-05T12:03:15.368Z,13.04
2022-11-05T12:05:49.519Z,12.93
2022-11-05T12:08:33.871Z,13.08
2022-11-05T12:11:06.932Z,13.00
2022-11-05T12:14:04.480Z,13.01
2022-11-05T12:17:15.471Z,13.10
2022-11-05T12:20:20.702Z,13.00
2022-11-05T12:23:18.275Z,13.09
2022-11-05T12:25:53.043Z,13.24
2022-11-05T12:28:57.843Z,13.25
2022-11-05T12:31:35.275Z,13.17
2022-11-05T12:34:18.954Z,13.23
2022-11-05T12:37:06.084Z,13.26
2022-11-05T12:39:45.118Z,13.18
2022-11-05T12:42:26.107Z,13.27
2022-11-05T12:45:02.897Z,13.35
2022-11-05T12:47:49.910Z,13.27
2022-11-05T12:50:26.087Z,13.32
2022-11-05T12:53:24.746Z,13.39
2022-11-05T12:55:53.842Z,13.45
2022-11-05T12:58:27.512Z,13.56
2022-11-05T13:01:00.492Z,13.51
2022-11-05T13:03:37.543Z,13.48
2022-11-05T13:06:10.766Z,13.53
2022-11-05T13:08:44.128Z,13.60
2022-11-05T13:11:19.527Z,13.65
2022-11-05T13:13:54.352Z,13.68
2022-11-05T13:16:30.472Z,13.65
2022-11-05T13:19:03.955Z,13.60
2022-11-05T13:21:33.463Z,13.56
2022-11-05T13:24:06.958Z,13.71
2022-11-05T13:26:41.026Z,13.73
2022-11-05T13:29:14.371Z,13.67
2022-11-05T13:31:49.898Z,13.63
2022-11-05T13:34:17.861Z,13.55
2022-11-05T13:37:12.746Z,13.62
2022-11-05T13:39:46.172Z,13.71
2022-11-05T13:42:57.720Z,13.73
2022-11-05T13:45:52.894Z,13.57
2022-11-05T13:48:47.578Z,13.45
2022-11-05T13:51:43.441Z,13.48
2022-11-05T13:54:37.218Z,13.50
2022-11-05T13:57:33.366Z,13.45
2022-11-05T14:00:13.521Z,13.43
2022-11-05T14:02:45.167Z,13.45
2022-11-05T14:05:25.060Z,13.40
2022-11-05T14:07:54.780Z,13.34
2022-11-05T14:10:57.764Z,13.23
2022-11-05T14:13:32.439Z,13.31
2022-11-05T14:16:06.242Z,13.34
2022-11-05T14:18:41.437Z,13.29
2022-11-05T14:21:34.554Z,13.21
2022-11-05T14:24:25.965Z,13.21
2022-11-05T14:27:31.367Z,13.28
2022-11-05T14:30:02.414Z,13.22
2022-11-05T14:32:50.033Z,13.30
2022-11-05T14:35:37.398Z,13.33
2022-11-05T14:38:17.088Z,13.35
2022-11-05T14:40:46.243Z,13.32
2022-11-05T14:43:22.024Z,13.26
2022-11-05T14:46:01.382Z,13.29
2022-11-05T14:48:40.351Z,13.29
2022-11-05T14:51:26.846Z,13.19
2022-11-05T14:54:02.254Z,13.19
2022-11-05T14:56:42.301Z,13.20
2022-11-05T14:59:48.818Z,13.21
2022-11-05T15:02:21.858Z,13.15
2022-11-05T15:04:52.773Z,13.11
2022-11-05T15:07:38.793Z,13.03
2022-11-05T15:10:11.745Z,13.06
2022-11-05T15:12:45.962Z,13.04
2022-11-05T15:15:22.406Z,13.02
2022-11-05T15:18:02.110Z,13.03
2022-11-05T15:20:40.155Z,12.98
2022-11-05T15:23:13.419Z,13.01
2022-11-05T15:25:53.168Z,13.14
2022-11-05T15:28:28.659Z,13.10
2022-11-05T15:30:58.579Z,13.03
2022-11-05T15:33:28.375Z,12.98
2022-11-05T15:36:11.223Z,12.98
2022-11-05T15:38:39.197Z,12.86
2022-11-05T15:41:14.832Z,12.78
2022-11-05T15:43:47.894Z,12.68
2022-11-05T15:46:18.017Z,12.68
2022-11-05T15:48:52.941Z,12.62
2022-11-05T15:51:22.735Z,12.50
2022-11-05T15:54:28.498Z,12.53
2022-11-05T15:56:51.354Z,12.53
2022-11-05T15:59:21.712Z,12.51
2022-11-05T16:01:52.848Z,12.45
2022-11-05T16:04:24.901Z,12.50
2022-11-05T16:06:55.249Z,12.51
2022-11-05T16:09:25.219Z,12.58
2022-11-05T16:12:14.643Z,12.54
2022-11-05T16:14:43.524Z,12.49
2022-11-05T16:17:18.594Z,12.42
2022-11-05T16:19:49.548Z,12.30
2022-11-05T16:22:18.063Z,12.36
2022-11-05T16:24:47.040Z,12.42
2022-11-05T16:27:19.609Z,12.52
2022-11-05T16:29:53.239Z,12.46
2022-11-05T16:32:29.893Z,12.47
2022-11-05T16:35:02.768Z,12.42
2022-11-05T16:37:37.859Z,12.43
2022-11-05T16:40:14.549Z,12.56
2022-11-05T16:42:42.831Z,12.55
2022-11-05T16:45:14.858Z,12.56
2022-11-05T16:47:44.194Z,12.55
2022-11-05T16:50:21.639Z,12.57
2022-11-05T16:52:50.180Z,12.52
2022-11-05T16:55:19.144Z,12.57
2022-11-05T16:57:52.266Z,12.56
2022-11-05T17:00:22.192Z,12.61
2022-11-05T17:02:50.484Z,12.58
2022-11-05T17:05:23.519Z,12.56
2022-11-05T17:07:51.762Z,12.54
2022-11-05T17:10:20.158Z,12.56
2022-11-05T17:12:48.365Z,12.54
2022-11-05T17:15:21.397Z,12.56
2022-11-05T17:17:49.706Z,12.57
2022-11-05T17:20:28.893Z,12.55
2022-11-05T17:22:57.879Z,12.51
2022-11-05T17:25:26.533Z,12.47
2022-11-05T17:27:54.708Z,12.42
2022-11-05T17:30:22.992Z,12.45
2022-11-05T17:32:51.174Z,12.44
2022-11-05T17:35:19.623Z,12.36
2022-11-05T17:37:49.222Z,12.40
2022-11-05T17:40:19.607Z,12.40
2022-11-05T17:42:48.295Z,12.31
2022-11-05T17:45:20.072Z,12.30
2022-11-05T17:47:48.037Z,12.23
2022-11-05T17:50:17.212Z,12.20
2022-11-05T17:52:45.386Z,12.18
2022-11-05T17:55:18.393Z,12.16
2022-11-05T17:57:49.682Z,12.15
2022-11-05T18:00:19.965Z,12.19
2022-11-05T18:02:49.521Z,12.14
2022-11-05T18:05:18.241Z,12.17
2022-11-05T18:07:46.728Z,12.21
2022-11-05T18:10:17.147Z,12.23
2022-11-05T18:12:45.406Z,12.19
2022-11-05T18:15:13.979Z,12.06
2022-11-05T18:17:42.822Z,12.03
2022-11-05T18:20:17.439Z,12.07
2022-11-05T18:22:47.140Z,11.97
2022-11-05T18:25:16.719Z,11.96
2022-11-05T18:27:45.170Z,12.04
2022-11-05T18:30:15.717Z,12.01
2022-11-05T18:32:44.297Z,11.90
2022-11-05T18:35:13.264Z,11.94
2022-11-05T18:37:41.571Z,11.93
2022-11-05T18:40:10.155Z,11.86
2022-11-05T18:42:39.514Z,11.85
2022-11-05T18:45:08.739Z,11.84
2022-11-05T18:47:36.928Z,11.81
2022-11-05T18:50:06.393Z,11.81
2022-11-05T18:52:34.579Z,11.81
2022-11-05T18:55:02.468Z,11.84
2022-11-05T18:57:30.289Z,11.95
2022-11-05T18:59:59.728Z,11.92
2022-11-05T19:02:28.037Z,11.85
2022-11-05T19:05:26.729Z,11.84
2022-11-05T19:07:43.951Z,11.78
2022-11-05T19:10:11.859Z,11.83
2022-11-05T19:12:39.781Z,11.87
2022-11-05T19:15:11.030Z,11.78
2022-11-05T19:17:38.935Z,11.89
2022-11-05T19:20:09.087Z,11.96
2022-11-05T19:22:37.021Z,11.92
2022-11-05T19:25:05.565Z,11.87
2022-11-05T19:27:33.460Z,11.92
2022-11-05T19:30:02.501Z,11.90
2022-11-05T19:32:31.848Z,11.86
2022-11-05T19:34:59.683Z,11.87
2022-11-05T19:37:27.684Z,11.83
2022-11-05T19:39:55.549Z,11.86
2022-11-05T19:42:23.443Z,11.79
2022-11-05T19:44:51.611Z,11.88
2022-11-05T19:47:19.477Z,11.93
2022-11-05T19:49:48.690Z,11.92
2022-11-05T19:52:16.761Z,11.98
2022-11-05T19:54:46.030Z,11.99
2022-11-05T19:57:14.243Z,11.92
2022-11-05T19:59:42.166Z,11.83
2022-11-05T20:02:16.073Z,11.94
2022-11-05T20:04:44.519Z,12.01
2022-11-05T20:07:13.726Z,11.97
2022-11-05T20:09:41.656Z,11.99
2022-11-05T20:12:09.581Z,12.02
2022-11-05T20:14:37.514Z,12.04
2022-11-05T20:17:05.494Z,12.01
2022-11-05T20:19:33.703Z,12.06
2022-11-05T20:22:01.806Z,11.99
2022-11-05T20:24:31.587Z,12.02
2022-11-05T20:26:59.674Z,12.00
2022-11-05T20:29:33.837Z,12.02
2022-11-05T20:32:03.602Z,12.03
2022-11-05T20:34:32.997Z,12.06
2022-11-05T20:37:01.307Z,11.92
2022-11-05T20:39:30.747Z,11.83
2022-11-05T20:42:00.579Z,11.77
2022-11-05T20:44:28.843Z,11.79
2022-11-05T20:46:59.517Z,11.87
2022-11-05T20:49:27.531Z,11.79
2022-11-05T20:51:55.609Z,11.80
2022-11-05T20:54:24.252Z,11.76
2022-11-05T20:56:53.561Z,11.84
2022-11-05T20:59:21.517Z,11.81
2022-11-05T21:01:51.258Z,11.83
2022-11-05T21:04:19.498Z,11.88
2022-11-05T21:06:47.622Z,11.85
2022-11-05T21:09:15.874Z,11.84
2022-11-05T21:12:03.369Z,11.80
2022-11-05T21:14:32.918Z,11.84
2022-11-05T21:17:00.962Z,11.81
2022-11-05T21:19:29.528Z,11.78
2022-11-05T21:21:57.400Z,11.75
2022-11-05T21:24:25.438Z,11.67
2022-11-05T21:26:53.643Z,11.72
2022-11-05T21:29:21.826Z,11.65
2022-11-05T21:31:51.590Z,11.72
2022-11-05T21:34:20.139Z,11.76
2022-11-05T21:36:48.319Z,11.70
2022-11-05T21:39:16.153Z,11.65
2022-11-05T21:41:44.709Z,11.68
2022-11-05T21:44:12.858Z,11.73
2022-11-05T21:46:40.943Z,11.63
2022-11-05T21:49:10.557Z,11.70
2022-11-05T21:51:55.985Z,11.78
2022-11-05T21:54:41.085Z,11.78
2022-11-05T21:57:29.136Z,11.76
2022-11-05T22:00:01.938Z,11.74
2022-11-05T22:02:30.736Z,11.68
2022-11-05T22:05:00.432Z,11.62
2022-11-05T22:07:32.320Z,11.68
2022-11-05T22:10:00.856Z,11.67
2022-11-05T22:12:29.137Z,11.62
2022-11-05T22:14:57.292Z,11.48
2022-11-05T22:17:25.744Z,11.50
2022-11-05T22:19:53.812Z,11.54
2022-11-05T22:22:23.135Z,11.42
2022-11-05T22:24:51.149Z,11.43
2022-11-05T22:27:21.462Z,11.44
2022-11-05T22:29:49.796Z,11.48
2022-11-05T22:32:18.010Z,11.48
2022-11-05T22:34:46.059Z,11.49
2022-11-05T22:37:14.462Z,11.44
2022-11-05T22:39:43.768Z,11.33
2022-11-05T22:42:11.752Z,11.36
2022-11-05T22:44:39.849Z,11.34
2022-11-05T22:47:08.177Z,11.24
2022-11-05T22:49:36.229Z,11.33
2022-11-05T22:52:04.341Z,11.35
2022-11-05T22:54:37.888Z,11.43
2022-11-05T22:57:08.714Z,11.44
2022-11-05T22:59:36.633Z,11.43
2022-11-05T23:02:09.479Z,11.36
2022-11-05T23:04:38.146Z,11.47
2022-11-05T23:07:27.529Z,11.50
2022-11-05T23:10:13.721Z,11.49
2022-11-05T23:12:44.700Z,11.59
2022-11-05T23:15:34.594Z,11.55
2022-11-05T23:18:34.842Z,11.61
2022-11-05T23:21:22.994Z,11.55
2022-11-05T23:24:10.836Z,11.47
2022-11-05T23:26:52.814Z,11.53
2022-11-05T23:29:24.949Z,11.45
2022-11-05T23:32:11.005Z,11.44
2022-11-05T23:34:39.472Z,11.36
2022-11-05T23:37:25.016Z,11.24
2022-11-05T23:39:53.206Z,11.33
2022-11-05T23:42:39.388Z,11.36
2022-11-05T23:45:27.823Z,11.36
2022-11-05T23:48:13.726Z,11.34
2022-11-05T23:50:42.607Z,11.33
2022-11-05T23:53:11.150Z,11.26
2022-11-05T23:55:40.552Z,11.38
2022-11-05T23:58:09.115Z,11.45
